createdAt,value
2024-02-24T00:00:52.431Z,95.61
2024-02-24T00:03:22.001Z,95.26
2024-02-24T00:05:53.645Z,94.95
2024-02-24T00:08:20.826Z,94.89
2024-02-24T00:10:48.245Z,94.15
2024-02-24T00:13:15.342Z,93.63
2024-02-24T00:15:42.253Z,94.13
2024-02-24T00:18:10.841Z,93.28
2024-02-24T00:20:38.050Z,93.95
2024-02-24T00:23:05.157Z,94.69
2024-02-24T00:25:32.247Z,94.16
2024-02-24T00:27:59.185Z,93.41
2024-02-24T00:30:26.279Z,93.79
2024-02-24T00:32:53.583Z,94.20
2024-02-24T00:35:20.694Z,94.55
2024-02-24T00:37:47.889Z,94.48
2024-02-24T00:40:15.162Z,94.75
2024-02-24T00:42:42.138Z,94.70
2024-02-24T00:45:09.334Z,94.41
2024-02-24T00:47:36.475Z,93.72
2024-02-24T00:50:03.807Z,93.92
2024-02-24T00:52:32.821Z,93.52
2024-02-24T00:55:01.095Z,93.93
2024-02-24T00:57:28.137Z,93.91
2024-02-24T00:59:55.106Z,93.73
2024-02-24T01:02:22.067Z,93.59
2024-02-24T01:04:50.317Z,93.24
2024-02-24T01:07:17.464Z,93.21
2024-02-24T01:09:44.478Z,92.47
2024-02-24T01:12:12.210Z,92.79
2024-02-24T01:14:39.370Z,92.71
2024-02-24T01:17:06.608Z,92.76
2024-02-24T01:19:33.688Z,92.68
2024-02-24T01:22:01.107Z,92.08
2024-02-24T01:24:28.077Z,92.12
2024-02-24T01:26:54.928Z,92.14
2024-02-24T01:29:22.144Z,92.40
2024-02-24T01:31:49.126Z,93.02
2024-02-24T01:34:16.125Z,92.92
2024-02-24T01:36:43.128Z,92.83
2024-02-24T01:39:10.389Z,92.71
2024-02-24T01:41:37.482Z,92.65
2024-02-24T01:44:04.490Z,92.45
2024-02-24T01:46:32.883Z,92.71
2024-02-24T01:49:00.008Z,92.54
2024-02-24T01:51:27.142Z,92.59
2024-02-24T01:53:54.545Z,92.33
2024-02-24T01:56:23.472Z,92.22
2024-02-24T01:58:50.547Z,92.16
2024-02-24T02:01:18.604Z,92.40
2024-02-24T02:03:45.762Z,92.34
2024-02-24T02:06:13.023Z,93.00
2024-02-24T02:08:40.102Z,92.55
2024-02-24T02:11:10.602Z,92.97
2024-02-24T02:13:38.312Z,93.22
2024-02-24T02:16:05.623Z,93.19
2024-02-24T02:18:35.464Z,93.79
2024-02-24T02:21:03.557Z,93.71
2024-02-24T02:23:30.434Z,93.51
2024-02-24T02:25:58.166Z,93.31
2024-02-24T02:28:25.406Z,93.44
2024-02-24T02:30:52.714Z,93.51
2024-02-24T02:33:19.998Z,93.18
2024-02-24T02:35:47.313Z,94.02
2024-02-24T02:38:14.516Z,93.49
2024-02-24T02:40:41.808Z,93.28
2024-02-24T02:43:08.786Z,93.29
2024-02-24T02:45:35.780Z,93.49
2024-02-24T02:48:02.972Z,93.94
2024-02-24T02:50:32.888Z,94.19
2024-02-24T02:52:59.951Z,94.15
2024-02-24T02:55:27.786Z,93.29
2024-02-24T02:57:54.757Z,93.22
2024-02-24T03:00:21.785Z,93.06
2024-02-24T03:02:49.189Z,93.92
2024-02-24T03:05:16.254Z,94.35
2024-02-24T03:07:43.161Z,94.39
2024-02-24T03:10:10.291Z,93.71
2024-02-24T03:12:37.247Z,93.17
2024-02-24T03:15:04.526Z,93.04
2024-02-24T03:17:31.510Z,92.95
2024-02-24T03:19:58.457Z,93.43
2024-02-24T03:22:25.439Z,93.51
2024-02-24T03:24:52.471Z,93.79
2024-02-24T03:27:19.327Z,93.90
2024-02-24T03:29:46.326Z,93.71
2024-02-24T03:32:13.321Z,93.74
2024-02-24T03:34:40.898Z,94.28
2024-02-24T03:37:07.894Z,94.19
2024-02-24T03:39:34.889Z,93.72
2024-02-24T03:42:01.934Z,93.65
2024-02-24T03:44:28.863Z,93.37
2024-02-24T03:46:55.810Z,93.86
2024-02-24T03:49:22.932Z,95.82
2024-02-24T03:51:49.862Z,94.83
2024-02-24T03:54:16.759Z,94.29
2024-02-24T03:56:44.577Z,93.71
2024-02-24T03:59:11.787Z,93.26
2024-02-24T04:01:41.343Z,93.41
2024-02-24T04:04:08.403Z,93.75
2024-02-24T04:06:35.557Z,93.42
2024-02-24T04:09:02.654Z,93.20
2024-02-24T04:11:30.534Z,92.92
2024-02-24T04:13:57.566Z,92.80
2024-02-24T04:16:24.460Z,93.65
2024-02-24T04:18:51.407Z,94.12
2024-02-24T04:21:20.629Z,94.18
2024-02-24T04:23:47.579Z,93.79
2024-02-24T04:26:14.611Z,93.36
2024-02-24T04:28:42.390Z,93.51
2024-02-24T04:31:09.405Z,93.72
2024-02-24T04:33:36.385Z,93.99
2024-02-24T04:36:05.368Z,94.18
2024-02-24T04:38:32.351Z,94.05
2024-02-24T04:40:59.457Z,94.23
2024-02-24T04:43:26.478Z,94.10
2024-02-24T04:45:53.572Z,94.32
2024-02-24T04:48:20.637Z,94.07
2024-02-24T04:50:47.731Z,93.80
2024-02-24T04:53:14.688Z,93.48
2024-02-24T04:55:41.529Z,93.86
2024-02-24T04:58:08.525Z,94.32
2024-02-24T05:00:36.009Z,94.65
2024-02-24T05:03:02.925Z,94.41
2024-02-24T05:05:29.985Z,94.56
2024-02-24T05:07:56.985Z,94.14
2024-02-24T05:10:24.044Z,94.26
2024-02-24T05:12:50.897Z,94.98
2024-02-24T05:15:18.949Z,94.89
2024-02-24T05:17:46.662Z,94.72
2024-02-24T05:20:15.122Z,94.49
2024-02-24T05:22:42.413Z,94.17
2024-02-24T05:25:11.012Z,94.81
2024-02-24T05:27:38.044Z,95.68
2024-02-24T05:30:05.650Z,94.37
2024-02-24T05:32:32.682Z,94.47
2024-02-24T05:34:59.763Z,94.85
2024-02-24T05:37:26.641Z,94.79
2024-02-24T05:39:53.895Z,95.42
2024-02-24T05:42:20.885Z,96.21
2024-02-24T05:44:47.897Z,96.65
2024-02-24T05:47:15.105Z,96.19
2024-02-24T05:49:42.491Z,95.85
2024-02-24T05:52:09.510Z,95.75
2024-02-24T05:54:39.670Z,96.35
2024-02-24T05:57:06.510Z,96.43
2024-02-24T05:59:33.459Z,96.34
2024-02-24T06:02:00.689Z,96.54
2024-02-24T06:04:27.657Z,96.41
2024-02-24T06:06:54.618Z,96.31
2024-02-24T06:09:21.580Z,96.53
2024-02-24T06:11:48.633Z,96.09
2024-02-24T06:14:15.755Z,96.07
2024-02-24T06:16:43.110Z,96.02
2024-02-24T06:19:10.125Z,96.08
2024-02-24T06:21:37.141Z,95.89
2024-02-24T06:24:04.376Z,96.04
2024-02-24T06:26:31.560Z,96.19
2024-02-24T06:28:58.474Z,96.15
2024-02-24T06:31:25.414Z,96.18
2024-02-24T06:33:52.501Z,96.21
2024-02-24T06:36:19.499Z,96.68
2024-02-24T06:38:46.689Z,96.27
2024-02-24T06:41:13.919Z,96.16
2024-02-24T06:43:41.154Z,96.06
2024-02-24T06:46:08.662Z,95.73
2024-02-24T06:48:35.555Z,95.67
2024-02-24T06:51:02.553Z,96.06
2024-02-24T06:53:29.443Z,95.90
2024-02-24T06:55:56.377Z,95.69
2024-02-24T06:58:23.254Z,95.56
2024-02-24T07:00:50.260Z,96.09
2024-02-24T07:03:17.333Z,96.03
2024-02-24T07:05:44.517Z,96.15
2024-02-24T07:08:11.520Z,96.07
2024-02-24T07:10:38.570Z,96.17
2024-02-24T07:13:05.491Z,95.95
2024-02-24T07:15:32.561Z,96.10
2024-02-24T07:17:59.640Z,96.87
2024-02-24T07:20:26.659Z,96.42
2024-02-24T07:22:53.566Z,95.80
2024-02-24T07:25:20.418Z,95.82
2024-02-24T07:27:47.434Z,95.97
2024-02-24T07:30:14.814Z,96.14
2024-02-24T07:32:43.767Z,96.10
2024-02-24T07:35:11.694Z,95.80
2024-02-24T07:37:38.901Z,95.34
2024-02-24T07:40:06.475Z,95.10
2024-02-24T07:42:33.423Z,94.53
2024-02-24T07:45:00.489Z,94.87
2024-02-24T07:47:27.543Z,95.19
2024-02-24T07:49:54.699Z,95.57
2024-02-24T07:52:21.802Z,95.45
2024-02-24T07:54:48.805Z,95.66
2024-02-24T07:57:15.764Z,96.06
2024-02-24T07:59:42.922Z,95.77
2024-02-24T08:02:09.971Z,95.41
2024-02-24T08:04:36.970Z,94.55
2024-02-24T08:07:04.288Z,93.89
2024-02-24T08:09:31.329Z,93.32
2024-02-24T08:11:58.502Z,92.14
2024-02-24T08:14:25.594Z,91.86
2024-02-24T08:16:52.658Z,91.47
2024-02-24T08:19:19.923Z,90.93
2024-02-24T08:21:46.982Z,89.31
2024-02-24T08:24:17.869Z,89.29
2024-02-24T08:26:46.172Z,89.70
2024-02-24T08:29:13.370Z,90.02
2024-02-24T08:31:40.871Z,89.97
2024-02-24T08:34:08.073Z,89.34
2024-02-24T08:36:35.783Z,89.45
2024-02-24T08:39:03.440Z,89.31
2024-02-24T08:41:34.927Z,89.66
2024-02-24T08:44:03.098Z,90.21
2024-02-24T08:46:30.281Z,89.26
2024-02-24T08:48:58.091Z,89.21
2024-02-24T08:51:26.774Z,87.98
2024-02-24T08:53:54.156Z,87.63
2024-02-24T08:56:22.121Z,87.65
2024-02-24T08:58:49.982Z,87.72
2024-02-24T09:01:18.281Z,87.49
2024-02-24T09:03:45.742Z,86.73
2024-02-24T09:06:13.068Z,87.19
2024-02-24T09:08:40.247Z,86.51
2024-02-24T09:11:07.624Z,86.18
2024-02-24T09:13:34.778Z,86.35
2024-02-24T09:16:05.870Z,86.40
2024-02-24T09:18:33.414Z,86.59
2024-02-24T09:21:00.946Z,85.75
2024-02-24T09:23:28.061Z,84.92
2024-02-24T09:25:55.224Z,85.00
2024-02-24T09:28:22.410Z,84.76
2024-02-24T09:30:49.582Z,84.29
2024-02-24T09:33:17.256Z,84.18
2024-02-24T09:35:44.568Z,84.84
2024-02-24T09:38:11.750Z,85.66
2024-02-24T09:40:38.891Z,86.03
2024-02-24T09:43:06.684Z,85.39
2024-02-24T09:45:36.179Z,85.34
2024-02-24T09:48:04.690Z,85.45
2024-02-24T09:50:32.089Z,85.69
2024-02-24T09:52:59.673Z,85.22
2024-02-24T09:55:26.893Z,84.93
2024-02-24T09:57:56.972Z,85.37
2024-02-24T10:00:25.414Z,87.26
2024-02-24T10:02:55.701Z,90.41
2024-02-24T10:05:26.788Z,86.81
2024-02-24T10:07:56.016Z,83.47
2024-02-24T10:10:27.836Z,83.05
2024-02-24T10:13:04.844Z,83.00
2024-02-24T10:15:33.968Z,82.77
2024-02-24T10:18:02.445Z,82.50
2024-02-24T10:20:30.209Z,82.81
2024-02-24T10:22:58.471Z,83.85
2024-02-24T10:25:25.780Z,83.26
2024-02-24T10:27:53.446Z,81.11
2024-02-24T10:30:24.290Z,80.58
2024-02-24T10:32:54.148Z,81.13
2024-02-24T10:35:21.621Z,79.71
2024-02-24T10:38:04.016Z,80.08
2024-02-24T10:40:39.105Z,82.25
2024-02-24T10:43:06.664Z,81.74
2024-02-24T10:45:34.218Z,81.91
2024-02-24T10:48:01.791Z,80.43
2024-02-24T10:50:29.529Z,81.38
2024-02-24T10:52:58.860Z,81.59
2024-02-24T10:55:26.886Z,80.64
2024-02-24T10:57:54.857Z,79.60
2024-02-24T11:00:31.711Z,79.43
2024-02-24T11:03:00.741Z,78.97
2024-02-24T11:05:29.840Z,78.86
2024-02-24T11:07:57.465Z,77.38
2024-02-24T11:10:32.262Z,77.16
2024-02-24T11:13:01.727Z,77.87
2024-02-24T11:15:29.247Z,78.18
2024-02-24T11:18:00.039Z,78.90
2024-02-24T11:20:39.310Z,78.93
2024-02-24T11:23:16.153Z,77.19
2024-02-24T11:25:43.601Z,77.16
2024-02-24T11:28:11.186Z,78.74
2024-02-24T11:30:39.984Z,76.68
2024-02-24T11:33:17.166Z,76.07
2024-02-24T11:35:44.933Z,75.11
2024-02-24T11:38:12.264Z,75.73
2024-02-24T11:40:39.532Z,76.77
2024-02-24T11:43:07.342Z,76.57
2024-02-24T11:45:36.897Z,75.55
2024-02-24T11:48:04.519Z,76.39
2024-02-24T11:50:32.143Z,77.46
2024-02-24T11:52:59.360Z,76.82
2024-02-24T11:55:26.505Z,76.61
2024-02-24T11:57:53.899Z,77.89
2024-02-24T12:00:21.546Z,78.02
2024-02-24T12:02:49.697Z,76.92
2024-02-24T12:05:17.648Z,76.04
2024-02-24T12:07:45.503Z,76.95
2024-02-24T12:10:13.097Z,76.67
2024-02-24T12:12:41.259Z,77.69
2024-02-24T12:15:08.918Z,77.67
2024-02-24T12:17:36.706Z,76.92
2024-02-24T12:20:04.447Z,77.58
2024-02-24T12:22:31.888Z,79.36
2024-02-24T12:25:12.863Z,78.63
2024-02-24T12:27:40.143Z,79.77
2024-02-24T12:30:08.396Z,79.92
2024-02-24T12:32:36.155Z,77.81
2024-02-24T12:35:04.987Z,77.79
2024-02-24T12:37:34.216Z,79.24
2024-02-24T12:40:02.205Z,79.02
2024-02-24T12:42:29.662Z,78.94
2024-02-24T12:44:56.966Z,78.03
2024-02-24T12:47:24.346Z,76.77
2024-02-24T12:49:51.836Z,75.52
2024-02-24T12:52:19.293Z,74.59
2024-02-24T12:54:46.600Z,75.59
2024-02-24T12:57:13.909Z,73.60
2024-02-24T12:59:41.183Z,74.59
2024-02-24T13:02:08.786Z,73.65
2024-02-24T13:04:35.937Z,72.28
2024-02-24T13:07:03.340Z,72.54
2024-02-24T13:09:30.532Z,72.14
2024-02-24T13:11:58.456Z,71.89
2024-02-24T13:14:25.975Z,71.12
2024-02-24T13:16:53.329Z,72.65
2024-02-24T13:19:20.607Z,72.93
2024-02-24T13:21:47.902Z,71.80
2024-02-24T13:24:15.430Z,71.87
2024-02-24T13:26:43.038Z,71.91
2024-02-24T13:29:10.255Z,71.90
2024-02-24T13:31:38.455Z,70.76
2024-02-24T13:34:05.974Z,70.70
2024-02-24T13:36:33.427Z,70.54
2024-02-24T13:39:00.838Z,70.91
2024-02-24T13:41:28.746Z,70.32
2024-02-24T13:43:56.286Z,69.76
2024-02-24T13:46:23.622Z,69.80
2024-02-24T13:49:01.880Z,70.11
2024-02-24T13:51:29.250Z,71.33
2024-02-24T13:53:56.480Z,71.17
2024-02-24T13:56:26.154Z,70.64
2024-02-24T13:58:58.914Z,71.39
2024-02-24T14:01:26.299Z,70.22
2024-02-24T14:03:53.534Z,68.73
2024-02-24T14:06:24.470Z,69.88
2024-02-24T14:08:52.496Z,69.65
2024-02-24T14:11:19.914Z,69.09
2024-02-24T14:13:46.930Z,70.05
2024-02-24T14:16:14.087Z,69.79
2024-02-24T14:18:41.840Z,70.39
2024-02-24T14:21:09.307Z,71.32
2024-02-24T14:23:38.918Z,69.65
2024-02-24T14:26:06.629Z,69.10
2024-02-24T14:28:33.817Z,69.94
2024-02-24T14:31:00.986Z,69.62
2024-02-24T14:33:28.728Z,69.18
2024-02-24T14:35:56.186Z,70.33
2024-02-24T14:38:23.558Z,69.87
2024-02-24T14:40:53.694Z,71.26
2024-02-24T14:43:20.980Z,71.74
2024-02-24T14:45:49.080Z,71.13
2024-02-24T14:48:16.550Z,70.79
2024-02-24T14:50:44.787Z,71.20
2024-02-24T14:53:12.148Z,71.74
2024-02-24T14:55:39.253Z,72.17
2024-02-24T14:58:07.139Z,71.25
2024-02-24T15:00:34.544Z,70.92
2024-02-24T15:03:09.611Z,70.49
2024-02-24T15:05:38.854Z,71.29
2024-02-24T15:08:06.711Z,71.28
2024-02-24T15:10:33.823Z,70.24
2024-02-24T15:13:00.989Z,72.75
2024-02-24T15:15:28.208Z,72.36
2024-02-24T15:17:56.575Z,72.51
2024-02-24T15:20:23.870Z,71.97
2024-02-24T15:22:52.618Z,70.96
2024-02-24T15:25:20.254Z,70.15
2024-02-24T15:27:47.851Z,69.26
2024-02-24T15:30:15.432Z,69.79
2024-02-24T15:32:42.841Z,70.34
2024-02-24T15:35:10.238Z,70.67
2024-02-24T15:37:37.638Z,69.29
2024-02-24T15:40:09.404Z,70.17
2024-02-24T15:42:36.893Z,70.07
2024-02-24T15:45:04.813Z,69.41
2024-02-24T15:47:32.239Z,69.15
2024-02-24T15:49:59.518Z,70.89
2024-02-24T15:52:27.008Z,71.28
2024-02-24T15:54:54.298Z,70.62
2024-02-24T15:57:21.773Z,69.94
2024-02-24T15:59:49.211Z,69.34
2024-02-24T16:02:16.636Z,69.08
2024-02-24T16:04:44.165Z,69.68
2024-02-24T16:07:11.669Z,70.02
2024-02-24T16:09:39.547Z,70.19
2024-02-24T16:12:07.759Z,70.76
2024-02-24T16:14:35.043Z,70.91
2024-02-24T16:17:05.097Z,71.28
2024-02-24T16:19:32.765Z,71.35
2024-02-24T16:22:01.201Z,70.50
2024-02-24T16:24:30.785Z,69.23
2024-02-24T16:26:59.458Z,68.59
2024-02-24T16:29:27.361Z,67.89
2024-02-24T16:31:54.967Z,69.01
2024-02-24T16:34:22.970Z,70.08
2024-02-24T16:36:51.065Z,70.46
2024-02-24T16:39:18.742Z,70.56
2024-02-24T16:41:46.361Z,70.74
2024-02-24T16:44:14.768Z,70.12
2024-02-24T16:46:42.897Z,71.12
2024-02-24T16:49:10.770Z,71.58
2024-02-24T16:51:38.309Z,70.06
2024-02-24T16:54:05.589Z,70.22
2024-02-24T16:56:36.400Z,71.09
2024-02-24T16:59:04.485Z,71.22
2024-02-24T17:01:32.248Z,70.77
2024-02-24T17:03:59.847Z,71.40
2024-02-24T17:06:30.395Z,72.17
2024-02-24T17:08:58.027Z,73.17
2024-02-24T17:11:26.357Z,73.61
2024-02-24T17:13:53.903Z,75.08
2024-02-24T17:16:21.437Z,75.17
2024-02-24T17:18:49.017Z,75.49
2024-02-24T17:21:16.610Z,75.12
2024-02-24T17:23:44.166Z,74.96
2024-02-24T17:26:11.587Z,74.62
2024-02-24T17:28:38.850Z,75.42
2024-02-24T17:31:06.105Z,76.14
2024-02-24T17:33:33.409Z,76.70
2024-02-24T17:36:01.097Z,76.30
2024-02-24T17:38:29.586Z,76.64
2024-02-24T17:40:59.263Z,76.08
2024-02-24T17:43:28.487Z,77.42
2024-02-24T17:45:55.966Z,76.93
2024-02-24T17:48:24.220Z,77.42
2024-02-24T17:50:51.975Z,77.11
2024-02-24T17:53:20.239Z,77.92
2024-02-24T17:55:47.986Z,78.53
2024-02-24T17:58:15.817Z,78.98
2024-02-24T18:00:43.930Z,78.46
2024-02-24T18:03:14.364Z,78.46
2024-02-24T18:05:42.314Z,77.64
2024-02-24T18:08:09.667Z,78.18
2024-02-24T18:10:36.982Z,79.48
2024-02-24T18:13:04.406Z,79.54
2024-02-24T18:15:31.821Z,79.25
2024-02-24T18:17:59.171Z,79.30
2024-02-24T18:20:26.924Z,79.51
2024-02-24T18:22:54.272Z,79.79
2024-02-24T18:25:21.593Z,80.78
2024-02-24T18:27:49.084Z,80.87
2024-02-24T18:30:16.660Z,81.11
2024-02-24T18:32:44.486Z,81.70
2024-02-24T18:35:12.139Z,80.99
2024-02-24T18:37:39.412Z,81.17
2024-02-24T18:40:07.330Z,81.99
2024-02-24T18:42:34.780Z,82.70
2024-02-24T18:45:02.254Z,82.43
2024-02-24T18:47:30.014Z,82.74
2024-02-24T18:49:58.861Z,82.77
2024-02-24T18:52:26.576Z,83.78
2024-02-24T18:54:54.047Z,84.13
2024-02-24T18:57:21.390Z,84.91
2024-02-24T18:59:50.511Z,83.91
2024-02-24T19:02:18.413Z,84.53
2024-02-24T19:04:48.681Z,84.83
2024-02-24T19:07:17.199Z,85.32
2024-02-24T19:09:45.917Z,85.50
2024-02-24T19:12:14.036Z,85.25
2024-02-24T19:14:48.829Z,84.53
2024-02-24T19:17:22.645Z,85.20
2024-02-24T19:19:50.546Z,85.71
2024-02-24T19:22:17.980Z,86.35
2024-02-24T19:24:45.383Z,86.40
2024-02-24T19:27:12.513Z,86.83
2024-02-24T19:29:45.459Z,86.42
2024-02-24T19:32:13.621Z,86.72
2024-02-24T19:34:40.876Z,86.81
2024-02-24T19:37:10.974Z,87.46
2024-02-24T19:39:38.672Z,87.70
2024-02-24T19:42:06.424Z,87.90
2024-02-24T19:44:35.616Z,87.76
2024-02-24T19:47:06.075Z,87.88
2024-02-24T19:49:33.299Z,88.10
2024-02-24T19:52:00.640Z,88.18
2024-02-24T19:54:28.534Z,87.95
2024-02-24T19:56:55.874Z,87.68
2024-02-24T19:59:23.121Z,87.62
2024-02-24T20:01:51.507Z,88.04
2024-02-24T20:04:19.373Z,87.96
2024-02-24T20:06:47.537Z,87.21
2024-02-24T20:09:14.818Z,87.25
2024-02-24T20:11:42.124Z,87.45
2024-02-24T20:14:09.539Z,87.57
2024-02-24T20:16:36.887Z,87.65
2024-02-24T20:19:04.407Z,87.63
2024-02-24T20:21:32.086Z,87.90
2024-02-24T20:23:59.256Z,88.23
2024-02-24T20:26:26.476Z,88.39
2024-02-24T20:28:55.167Z,87.94
2024-02-24T20:31:23.497Z,87.86
2024-02-24T20:33:56.559Z,87.65
2024-02-24T20:36:30.511Z,88.01
2024-02-24T20:39:00.315Z,88.23
2024-02-24T20:41:30.500Z,88.14
2024-02-24T20:43:59.296Z,88.50
2024-02-24T20:46:26.905Z,88.35
2024-02-24T20:48:54.450Z,88.56
2024-02-24T20:51:21.519Z,88.82
2024-02-24T20:53:48.878Z,88.92
2024-02-24T20:56:16.101Z,89.08
2024-02-24T20:58:43.208Z,89.02
2024-02-24T21:01:10.333Z,88.27
2024-02-24T21:03:37.488Z,88.50
2024-02-24T21:06:04.865Z,88.77
2024-02-24T21:08:32.209Z,88.67
2024-02-24T21:10:59.702Z,88.83
2024-02-24T21:13:26.712Z,88.93
2024-02-24T21:15:53.835Z,89.30
2024-02-24T21:18:21.099Z,89.83
2024-02-24T21:20:48.353Z,89.92
2024-02-24T21:23:15.601Z,90.15
2024-02-24T21:25:43.250Z,90.39
2024-02-24T21:28:10.909Z,90.52
2024-02-24T21:30:38.183Z,90.62
2024-02-24T21:33:05.756Z,90.80
2024-02-24T21:35:33.165Z,90.94
2024-02-24T21:38:02.135Z,91.34
2024-02-24T21:40:29.244Z,91.19
2024-02-24T21:42:56.705Z,91.43
2024-02-24T21:45:23.808Z,91.64
2024-02-24T21:47:50.871Z,91.70
2024-02-24T21:50:18.065Z,91.91
2024-02-24T21:52:45.473Z,92.19
2024-02-24T21:55:14.011Z,92.20
2024-02-24T21:57:43.046Z,92.05
2024-02-24T22:00:16.829Z,92.33
2024-02-24T22:02:44.276Z,92.08
2024-02-24T22:05:11.821Z,92.22
2024-02-24T22:07:38.828Z,92.43
2024-02-24T22:10:06.425Z,92.45
2024-02-24T22:12:33.414Z,92.51
2024-02-24T22:15:00.669Z,92.42
2024-02-24T22:17:28.213Z,92.76
2024-02-24T22:19:55.278Z,92.69
2024-02-24T22:22:22.450Z,92.44
2024-02-24T22:24:49.759Z,92.66
2024-02-24T22:27:17.486Z,92.77
2024-02-24T22:29:45.610Z,92.67
2024-02-24T22:32:12.899Z,92.62
2024-02-24T22:34:39.966Z,92.87
2024-02-24T22:37:07.081Z,93.12
2024-02-24T22:39:34.222Z,92.97
2024-02-24T22:42:01.394Z,93.07
2024-02-24T22:44:32.601Z,93.01
2024-02-24T22:46:59.566Z,93.37
2024-02-24T22:49:26.716Z,93.51
2024-02-24T22:51:54.011Z,93.64
2024-02-24T22:54:21.078Z,94.44
2024-02-24T22:56:48.244Z,94.57
2024-02-24T22:59:15.225Z,94.15
2024-02-24T23:01:42.656Z,94.40
2024-02-24T23:04:10.706Z,94.71
2024-02-24T23:06:37.839Z,94.23
2024-02-24T23:09:05.136Z,93.78
2024-02-24T23:11:39.140Z,93.66
2024-02-24T23:14:09.763Z,93.71
2024-02-24T23:16:36.978Z,94.25
2024-02-24T23:19:05.159Z,94.01
2024-02-24T23:21:36.887Z,93.96
2024-02-24T23:24:05.506Z,93.70
2024-02-24T23:26:33.414Z,93.66
2024-02-24T23:29:03.040Z,93.83
2024-02-24T23:31:30.779Z,94.21
2024-02-24T23:33:58.062Z,94.44
2024-02-24T23:36:25.737Z,94.24
2024-02-24T23:38:52.780Z,94.39
2024-02-24T23:41:19.758Z,94.42
2024-02-24T23:43:46.770Z,94.34
2024-02-24T23:46:14.354Z,94.37
2024-02-24T23:48:41.974Z,94.33
2024-02-24T23:51:09.327Z,94.83
2024-02-24T23:53:36.351Z,94.84
2024-02-24T23:56:04.009Z,95.06
2024-02-24T23:58:31.101Z,94.99
